createdAt,value
2022-12-11T00:00:53.237Z,5.86
2022-12-11T00:03:20.407Z,5.88
2022-12-11T00:05:48.117Z,5.88
2022-12-11T00:08:15.726Z,5.89
2022-12-11T00:10:50.074Z,5.89
2022-12-11T00:13:17.261Z,5.86
2022-12-11T00:15:44.393Z,5.86
2022-12-11T00:18:14.932Z,5.81
2022-12-11T00:20:42.502Z,5.81
2022-12-11T00:23:10.966Z,5.78
2022-12-11T00:25:47.011Z,5.72
2022-12-11T00:28:20.595Z,5.74
2022-12-11T00:30:48.565Z,5.71
2022-12-11T00:33:16.960Z,5.70
2022-12-11T00:35:46.870Z,5.61
2022-12-11T00:38:20.134Z,5.60
2022-12-11T00:40:48.339Z,5.59
2022-12-11T00:43:16.145Z,5.57
2022-12-11T00:45:46.056Z,5.62
2022-12-11T00:48:14.022Z,5.58
2022-12-11T00:50:42.704Z,5.61
2022-12-11T00:53:09.952Z,5.51
2022-12-11T00:55:39.754Z,5.44
2022-12-11T00:58:07.608Z,5.45
2022-12-11T01:00:34.865Z,5.44
2022-12-11T01:03:02.289Z,5.38
2022-12-11T01:05:29.496Z,5.39
2022-12-11T01:07:56.843Z,5.35
2022-12-11T01:10:24.202Z,5.35
2022-12-11T01:12:57.357Z,5.34
2022-12-11T01:15:29.112Z,5.34
2022-12-11T01:17:57.371Z,5.34
2022-12-11T01:20:27.446Z,5.32
2022-12-11T01:22:57.868Z,5.30
2022-12-11T01:25:27.277Z,5.29
2022-12-11T01:27:55.899Z,5.26
2022-12-11T01:30:25.734Z,5.27
2022-12-11T01:32:53.085Z,5.25
2022-12-11T01:35:20.765Z,5.25
2022-12-11T01:37:49.134Z,5.22
2022-12-11T01:40:19.138Z,5.19
2022-12-11T01:42:47.136Z,5.15
2022-12-11T01:45:48.688Z,5.10
2022-12-11T01:48:24.580Z,5.08
2022-12-11T01:51:05.238Z,5.06
2022-12-11T01:53:41.077Z,5.05
2022-12-11T01:56:09.097Z,4.98
2022-12-11T01:58:46.911Z,4.92
2022-12-11T02:01:23.029Z,4.90
2022-12-11T02:03:51.096Z,4.87
2022-12-11T02:06:36.669Z,4.83
2022-12-11T02:09:14.211Z,4.79
2022-12-11T02:12:01.319Z,4.77
2022-12-11T02:14:43.515Z,4.74
2022-12-11T02:17:26.444Z,4.73
2022-12-11T02:20:12.216Z,4.72
2022-12-11T02:23:07.024Z,4.69
2022-12-11T02:26:01.945Z,4.68
2022-12-11T02:28:35.662Z,4.63
2022-12-11T02:31:42.588Z,4.56
2022-12-11T02:34:45.290Z,4.54
2022-12-11T02:37:25.241Z,4.51
2022-12-11T02:39:55.272Z,4.51
2022-12-11T02:42:28.233Z,4.50
2022-12-11T02:44:58.604Z,4.55
2022-12-11T02:47:29.681Z,4.49
2022-12-11T02:50:00.587Z,4.42
2022-12-11T02:52:31.227Z,4.42
2022-12-11T02:55:01.579Z,4.45
2022-12-11T02:57:38.430Z,4.50
2022-12-11T03:00:08.668Z,4.51
2022-12-11T03:02:37.473Z,4.43
2022-12-11T03:05:05.655Z,4.44
2022-12-11T03:07:38.024Z,4.43
2022-12-11T03:10:08.611Z,4.44
2022-12-11T03:12:39.464Z,4.46
2022-12-11T03:15:12.254Z,4.49
2022-12-11T03:18:19.078Z,4.48
2022-12-11T03:21:02.400Z,4.40
2022-12-11T03:23:49.046Z,4.44
2022-12-11T03:26:20.229Z,4.37
2022-12-11T03:29:05.451Z,4.34
2022-12-11T03:31:44.528Z,4.35
2022-12-11T03:34:21.025Z,4.38
2022-12-11T03:36:50.805Z,4.35
2022-12-11T03:39:32.398Z,4.36
2022-12-11T03:42:06.679Z,4.36
2022-12-11T03:44:34.828Z,4.37
2022-12-11T03:47:07.363Z,4.35
2022-12-11T03:49:39.537Z,4.32
2022-12-11T03:52:09.740Z,4.32
2022-12-11T03:54:38.646Z,4.34
2022-12-11T03:57:08.645Z,4.34
2022-12-11T03:59:35.865Z,4.36
2022-12-11T04:02:10.883Z,4.38
2022-12-11T04:04:40.842Z,4.40
2022-12-11T04:07:09.541Z,4.42
2022-12-11T04:09:37.555Z,4.41
2022-12-11T04:12:04.995Z,4.42
2022-12-11T04:14:51.464Z,4.42
2022-12-11T04:17:38.898Z,4.42
2022-12-11T04:20:25.556Z,4.42
2022-12-11T04:23:10.953Z,4.45
2022-12-11T04:25:37.960Z,4.48
2022-12-11T04:28:05.200Z,4.49
2022-12-11T04:30:34.297Z,4.49
2022-12-11T04:33:02.506Z,4.49
2022-12-11T04:35:29.818Z,4.51
2022-12-11T04:37:57.618Z,4.51
2022-12-11T04:40:25.070Z,4.48
2022-12-11T04:42:52.104Z,4.47
2022-12-11T04:45:19.292Z,4.47
2022-12-11T04:47:46.391Z,4.45
2022-12-11T04:50:15.093Z,4.43
2022-12-11T04:52:43.181Z,4.43
2022-12-11T04:55:12.037Z,4.43
2022-12-11T04:57:39.540Z,4.42
2022-12-11T05:00:11.790Z,4.42
2022-12-11T05:02:41.827Z,4.44
2022-12-11T05:05:11.166Z,4.42
2022-12-11T05:07:38.961Z,4.42
2022-12-11T05:10:07.549Z,4.41
2022-12-11T05:12:34.663Z,4.40
2022-12-11T05:15:01.750Z,4.41
2022-12-11T05:17:28.905Z,4.42
2022-12-11T05:19:55.996Z,4.43
2022-12-11T05:22:23.059Z,4.43
2022-12-11T05:24:50.148Z,4.44
2022-12-11T05:27:17.242Z,4.43
2022-12-11T05:29:44.282Z,4.45
2022-12-11T05:32:11.349Z,4.45
2022-12-11T05:34:38.443Z,4.48
2022-12-11T05:37:05.794Z,4.46
2022-12-11T05:39:33.003Z,4.44
2022-12-11T05:42:00.421Z,4.43
2022-12-11T05:44:27.812Z,4.42
2022-12-11T05:46:55.106Z,4.38
2022-12-11T05:49:27.328Z,4.38
2022-12-11T05:51:57.659Z,4.39
2022-12-11T05:54:24.755Z,4.43
2022-12-11T05:56:51.904Z,4.45
2022-12-11T05:59:19.891Z,4.45
2022-12-11T06:01:47.515Z,4.47
2022-12-11T06:04:14.892Z,4.50
2022-12-11T06:06:43.987Z,4.48
2022-12-11T06:09:17.067Z,4.46
2022-12-11T06:11:44.376Z,4.48
2022-12-11T06:14:12.449Z,4.49
2022-12-11T06:16:39.799Z,4.50
2022-12-11T06:19:07.782Z,4.53
2022-12-11T06:21:35.052Z,4.54
2022-12-11T06:24:04.456Z,4.55
2022-12-11T06:26:32.608Z,4.56
2022-12-11T06:29:00.459Z,4.59
2022-12-11T06:31:28.248Z,4.58
2022-12-11T06:33:56.060Z,4.57
2022-12-11T06:36:24.831Z,4.60
2022-12-11T06:38:53.173Z,4.60
2022-12-11T06:41:20.610Z,4.62
2022-12-11T06:43:47.903Z,4.63
2022-12-11T06:46:18.685Z,4.64
2022-12-11T06:48:47.521Z,4.66
2022-12-11T06:51:18.667Z,4.67
2022-12-11T06:53:51.243Z,4.69
2022-12-11T06:56:18.383Z,4.70
2022-12-11T06:58:45.711Z,4.70
2022-12-11T07:01:25.637Z,4.74
2022-12-11T07:03:55.166Z,4.74
2022-12-11T07:06:23.982Z,4.75
2022-12-11T07:08:52.322Z,4.75
2022-12-11T07:11:21.223Z,4.77
2022-12-11T07:13:48.666Z,4.75
2022-12-11T07:16:17.668Z,4.74
2022-12-11T07:18:50.611Z,4.75
2022-12-11T07:21:20.471Z,4.70
2022-12-11T07:23:49.068Z,4.69
2022-12-11T07:26:20.100Z,4.71
2022-12-11T07:28:49.186Z,4.70
2022-12-11T07:31:21.793Z,4.68
2022-12-11T07:34:02.755Z,4.67
2022-12-11T07:36:31.121Z,4.66
2022-12-11T07:39:00.827Z,4.66
2022-12-11T07:41:28.963Z,4.67
2022-12-11T07:43:56.649Z,4.67
2022-12-11T07:46:27.622Z,4.68
2022-12-11T07:48:55.141Z,4.67
2022-12-11T07:51:29.318Z,4.69
2022-12-11T07:54:05.281Z,4.64
2022-12-11T07:56:33.199Z,4.65
2022-12-11T07:59:02.769Z,4.65
2022-12-11T08:01:35.739Z,4.64
2022-12-11T08:04:06.669Z,4.65
2022-12-11T08:06:37.644Z,4.65
2022-12-11T08:09:11.961Z,4.66
2022-12-11T08:11:42.281Z,4.69
2022-12-11T08:14:09.805Z,4.70
2022-12-11T08:16:37.061Z,4.71
2022-12-11T08:19:04.456Z,4.75
2022-12-11T08:21:32.174Z,4.77
2022-12-11T08:23:59.326Z,4.78
2022-12-11T08:26:31.473Z,4.80
2022-12-11T08:28:59.948Z,4.83
2022-12-11T08:31:27.790Z,4.84
2022-12-11T08:33:57.602Z,4.86
2022-12-11T08:36:26.392Z,4.88
2022-12-11T08:38:56.348Z,4.92
2022-12-11T08:41:30.692Z,4.93
2022-12-11T08:44:00.383Z,4.96
2022-12-11T08:46:32.327Z,4.98
2022-12-11T08:49:00.373Z,5.00
2022-12-11T08:51:30.503Z,4.98
2022-12-11T08:54:01.025Z,4.98
2022-12-11T08:56:29.793Z,4.99
2022-12-11T08:59:01.199Z,5.01
2022-12-11T09:01:28.984Z,5.02
2022-12-11T09:03:57.216Z,5.03
2022-12-11T09:06:27.940Z,5.06
2022-12-11T09:08:56.594Z,5.09
2022-12-11T09:11:28.499Z,5.10
2022-12-11T09:13:56.554Z,5.12
2022-12-11T09:16:25.980Z,5.12
2022-12-11T09:18:57.253Z,5.14
2022-12-11T09:21:28.148Z,5.15
2022-12-11T09:23:58.646Z,5.17
2022-12-11T09:26:28.653Z,5.19
2022-12-11T09:28:56.666Z,5.21
2022-12-11T09:31:28.073Z,5.24
2022-12-11T09:34:00.307Z,5.25
2022-12-11T09:36:28.380Z,5.27
2022-12-11T09:38:55.846Z,5.30
2022-12-11T09:41:23.333Z,5.30
2022-12-11T09:44:05.755Z,5.31
2022-12-11T09:46:35.377Z,5.33
2022-12-11T09:49:05.256Z,5.34
2022-12-11T09:51:42.766Z,5.34
2022-12-11T09:54:13.750Z,5.36
2022-12-11T09:57:08.114Z,5.37
2022-12-11T10:00:04.816Z,5.38
2022-12-11T10:03:05.037Z,5.42
2022-12-11T10:06:16.012Z,5.44
2022-12-11T10:08:43.373Z,5.43
2022-12-11T10:11:48.289Z,5.46
2022-12-11T10:15:12.562Z,5.48
2022-12-11T10:17:42.272Z,5.51
2022-12-11T10:20:37.115Z,5.55
2022-12-11T10:23:09.187Z,5.57
2022-12-11T10:25:43.711Z,5.60
2022-12-11T10:28:14.421Z,5.64
2022-12-11T10:31:20.367Z,5.67
2022-12-11T10:34:02.916Z,5.69
2022-12-11T10:36:42.725Z,5.70
2022-12-11T10:39:20.944Z,5.73
2022-12-11T10:41:54.061Z,5.74
2022-12-11T10:44:29.793Z,5.78
2022-12-11T10:47:15.144Z,5.79
2022-12-11T10:50:00.532Z,5.81
2022-12-11T10:52:33.563Z,5.84
2022-12-11T10:55:07.171Z,5.86
2022-12-11T10:57:37.718Z,5.90
2022-12-11T11:00:43.900Z,5.95
2022-12-11T11:03:27.262Z,5.97
2022-12-11T11:06:17.447Z,6.01
2022-12-11T11:09:12.958Z,6.04
2022-12-11T11:11:40.087Z,6.07
2022-12-11T11:14:09.954Z,6.12
2022-12-11T11:16:40.525Z,6.18
2022-12-11T11:19:08.066Z,6.24
2022-12-11T11:21:36.033Z,6.30
2022-12-11T11:24:04.159Z,6.35
2022-12-11T11:27:04.400Z,6.38
2022-12-11T11:29:34.781Z,6.44
2022-12-11T11:32:17.607Z,6.46
2022-12-11T11:34:44.709Z,6.48
2022-12-11T11:37:33.009Z,6.51
2022-12-11T11:40:14.806Z,6.57
2022-12-11T11:43:22.729Z,6.53
2022-12-11T11:46:03.180Z,6.62
2022-12-11T11:48:48.525Z,6.62
2022-12-11T11:51:30.900Z,6.62
2022-12-11T11:54:03.633Z,6.62
2022-12-11T11:56:38.053Z,6.64
2022-12-11T11:59:31.230Z,6.67
2022-12-11T12:01:59.179Z,6.68
2022-12-11T12:04:34.450Z,6.67
2022-12-11T12:07:07.637Z,6.68
2022-12-11T12:09:40.746Z,6.72
2022-12-11T12:13:24.107Z,6.72
2022-12-11T12:16:01.742Z,6.70
2022-12-11T12:18:49.462Z,6.74
2022-12-11T12:21:37.698Z,6.76
2022-12-11T12:24:23.731Z,6.69
2022-12-11T12:27:51.042Z,6.71
2022-12-11T12:30:22.476Z,6.71
2022-12-11T12:33:34.585Z,6.72
2022-12-11T12:36:23.613Z,6.69
2022-12-11T12:38:59.445Z,6.68
2022-12-11T12:41:45.289Z,6.70
2022-12-11T12:44:22.622Z,6.66
2022-12-11T12:46:52.096Z,6.68
2022-12-11T12:49:43.761Z,6.70
2022-12-11T12:52:21.814Z,6.68
2022-12-11T12:55:11.933Z,6.70
2022-12-11T12:57:44.952Z,6.70
2022-12-11T13:00:13.835Z,6.73
2022-12-11T13:02:51.039Z,6.77
2022-12-11T13:05:33.814Z,6.81
2022-12-11T13:08:05.547Z,6.85
2022-12-11T13:10:40.728Z,6.88
2022-12-11T13:13:39.492Z,6.90
2022-12-11T13:16:27.328Z,6.96
2022-12-11T13:18:55.174Z,7.01
2022-12-11T13:21:38.342Z,7.08
2022-12-11T13:24:21.719Z,7.11
2022-12-11T13:26:50.564Z,7.13
2022-12-11T13:29:37.558Z,7.17
2022-12-11T13:32:11.234Z,7.19
2022-12-11T13:34:43.202Z,7.17
2022-12-11T13:37:35.265Z,7.18
2022-12-11T13:40:19.376Z,7.17
2022-12-11T13:43:09.072Z,7.19
2022-12-11T13:45:49.805Z,7.18
2022-12-11T13:48:36.242Z,7.17
2022-12-11T13:51:05.258Z,7.17
2022-12-11T13:53:32.891Z,7.20
2022-12-11T13:56:05.294Z,7.21
2022-12-11T13:58:46.940Z,7.20
2022-12-11T14:01:22.473Z,7.21
2022-12-11T14:04:02.057Z,7.21
2022-12-11T14:06:30.914Z,7.19
2022-12-11T14:09:01.196Z,7.18
2022-12-11T14:11:41.813Z,7.17
2022-12-11T14:14:20.759Z,7.15
2022-12-11T14:16:50.983Z,7.12
2022-12-11T14:19:22.137Z,7.12
2022-12-11T14:22:07.991Z,7.12
2022-12-11T14:24:35.163Z,7.10
2022-12-11T14:27:04.787Z,7.11
2022-12-11T14:29:34.146Z,7.12
2022-12-11T14:32:07.307Z,7.11
2022-12-11T14:34:39.043Z,7.10
2022-12-11T14:37:08.185Z,7.09
2022-12-11T14:39:42.125Z,7.07
2022-12-11T14:42:19.793Z,7.06
2022-12-11T14:45:01.807Z,7.05
2022-12-11T14:47:37.755Z,7.01
2022-12-11T14:50:24.247Z,6.98
2022-12-11T14:53:00.613Z,6.95
2022-12-11T14:55:33.206Z,6.93
2022-12-11T14:58:07.806Z,6.92
2022-12-11T15:00:37.626Z,6.91
2022-12-11T15:03:23.870Z,6.91
2022-12-11T15:05:54.499Z,6.90
2022-12-11T15:08:40.656Z,6.89
2022-12-11T15:11:14.791Z,6.88
2022-12-11T15:13:58.868Z,6.87
2022-12-11T15:16:28.738Z,6.84
2022-12-11T15:18:56.904Z,6.86
2022-12-11T15:21:34.380Z,6.86
2022-12-11T15:24:07.089Z,6.86
2022-12-11T15:26:39.344Z,6.85
2022-12-11T15:29:35.543Z,6.85
2022-12-11T15:32:10.107Z,6.81
2022-12-11T15:34:58.064Z,6.79
2022-12-11T15:37:31.880Z,6.76
2022-12-11T15:40:01.831Z,6.73
2022-12-11T15:42:40.881Z,6.71
2022-12-11T15:45:16.662Z,6.70
2022-12-11T15:47:44.329Z,6.66
2022-12-11T15:50:17.288Z,6.63
2022-12-11T15:52:45.446Z,6.60
2022-12-11T15:55:13.186Z,6.54
2022-12-11T15:57:47.999Z,6.50
2022-12-11T16:00:19.367Z,6.44
2022-12-11T16:02:47.432Z,6.41
2022-12-11T16:05:15.105Z,6.35
2022-12-11T16:07:42.675Z,6.31
2022-12-11T16:10:17.616Z,6.26
2022-12-11T16:12:45.655Z,6.21
2022-12-11T16:15:21.508Z,6.19
2022-12-11T16:17:50.669Z,6.14
2022-12-11T16:20:18.818Z,6.11
2022-12-11T16:22:45.998Z,6.06
2022-12-11T16:25:13.291Z,6.03
2022-12-11T16:27:40.545Z,6.01
2022-12-11T16:30:08.596Z,5.97
2022-12-11T16:32:35.647Z,5.92
2022-12-11T16:35:02.747Z,5.89
2022-12-11T16:37:29.808Z,5.87
2022-12-11T16:39:56.989Z,5.83
2022-12-11T16:42:24.071Z,5.82
2022-12-11T16:44:51.221Z,5.80
2022-12-11T16:47:18.257Z,5.75
2022-12-11T16:49:45.264Z,5.72
2022-12-11T16:52:13.627Z,5.69
2022-12-11T16:54:42.433Z,5.67
2022-12-11T16:57:09.677Z,5.64
2022-12-11T16:59:37.618Z,5.60
2022-12-11T17:02:05.442Z,5.58
2022-12-11T17:04:32.744Z,5.54
2022-12-11T17:07:00.046Z,5.51
2022-12-11T17:09:27.287Z,5.48
2022-12-11T17:11:54.510Z,5.47
2022-12-11T17:14:21.737Z,5.43
2022-12-11T17:16:48.838Z,5.41
2022-12-11T17:19:16.841Z,5.39
2022-12-11T17:21:48.428Z,5.33
2022-12-11T17:24:18.234Z,5.31
2022-12-11T17:26:45.351Z,5.28
2022-12-11T17:29:14.162Z,5.26
2022-12-11T17:31:41.358Z,5.21
2022-12-11T17:34:08.557Z,5.18
2022-12-11T17:36:35.607Z,5.14
2022-12-11T17:39:04.025Z,5.13
2022-12-11T17:41:32.207Z,5.11
2022-12-11T17:44:02.408Z,5.10
2022-12-11T17:46:29.731Z,5.07
2022-12-11T17:48:59.456Z,5.05
2022-12-11T17:51:26.783Z,5.03
2022-12-11T17:53:56.207Z,4.99
2022-12-11T17:56:24.176Z,4.98
2022-12-11T17:58:51.610Z,4.97
2022-12-11T18:01:19.191Z,4.94
2022-12-11T18:03:47.140Z,4.92
2022-12-11T18:06:15.965Z,4.91
2022-12-11T18:08:45.794Z,4.89
2022-12-11T18:11:17.323Z,4.87
2022-12-11T18:13:45.824Z,4.84
2022-12-11T18:16:30.701Z,4.78
2022-12-11T18:19:01.840Z,4.75
2022-12-11T18:21:36.004Z,4.73
2022-12-11T18:24:03.220Z,4.70
2022-12-11T18:26:30.331Z,4.70
2022-12-11T18:28:57.544Z,4.69
2022-12-11T18:31:25.234Z,4.68
2022-12-11T18:33:52.856Z,4.64
2022-12-11T18:36:21.077Z,4.60
2022-12-11T18:38:49.185Z,4.58
2022-12-11T18:41:19.355Z,4.53
2022-12-11T18:43:47.164Z,4.47
2022-12-11T18:46:18.018Z,4.44
2022-12-11T18:48:49.383Z,4.41
2022-12-11T18:51:25.121Z,4.38
2022-12-11T18:53:52.712Z,4.36
2022-12-11T18:56:21.109Z,4.34
2022-12-11T18:58:53.772Z,4.36
2022-12-11T19:01:25.243Z,4.37
2022-12-11T19:04:03.527Z,4.36
2022-12-11T19:06:35.532Z,4.35
2022-12-11T19:09:09.738Z,4.35
2022-12-11T19:11:41.039Z,4.34
2022-12-11T19:14:09.915Z,4.33
2022-12-11T19:16:42.801Z,4.32
2022-12-11T19:19:14.554Z,4.32
2022-12-11T19:21:43.364Z,4.29
2022-12-11T19:24:16.888Z,4.25
2022-12-11T19:26:44.248Z,4.18
2022-12-11T19:29:27.320Z,4.14
2022-12-11T19:31:55.883Z,4.12
2022-12-11T19:34:23.875Z,4.13
2022-12-11T19:36:51.460Z,4.11
2022-12-11T19:39:19.787Z,4.12
2022-12-11T19:41:47.090Z,4.12
2022-12-11T19:44:14.152Z,4.09
2022-12-11T19:46:41.902Z,4.09
2022-12-11T19:49:12.002Z,4.09
2022-12-11T19:51:41.453Z,4.07
2022-12-11T19:54:12.791Z,4.09
2022-12-11T19:56:41.023Z,4.06
2022-12-11T19:59:15.862Z,4.05
2022-12-11T20:01:48.561Z,4.03
2022-12-11T20:04:17.333Z,4.01
2022-12-11T20:06:47.064Z,4.00
2022-12-11T20:09:15.698Z,3.99
2022-12-11T20:11:45.312Z,3.99
2022-12-11T20:14:28.634Z,3.99
2022-12-11T20:17:13.998Z,3.99
2022-12-11T20:19:42.189Z,3.99
2022-12-11T20:22:10.363Z,3.99
2022-12-11T20:24:38.410Z,3.98
2022-12-11T20:27:05.837Z,3.95
2022-12-11T20:29:32.852Z,3.94
2022-12-11T20:32:00.520Z,3.92
2022-12-11T20:34:28.267Z,3.92
2022-12-11T20:36:56.301Z,3.88
2022-12-11T20:39:24.429Z,3.90
2022-12-11T20:41:56.794Z,3.92
2022-12-11T20:44:23.880Z,3.89
2022-12-11T20:46:50.967Z,3.86
2022-12-11T20:49:17.930Z,3.85
2022-12-11T20:51:45.604Z,3.90
2022-12-11T20:54:12.642Z,3.80
2022-12-11T20:56:39.591Z,3.73
2022-12-11T20:59:06.856Z,3.76
2022-12-11T21:01:35.108Z,3.80
2022-12-11T21:04:02.364Z,3.71
2022-12-11T21:06:33.765Z,3.66
2022-12-11T21:09:08.224Z,3.72
2022-12-11T21:11:35.579Z,3.74
2022-12-11T21:14:03.426Z,3.76
2022-12-11T21:16:30.844Z,3.77
2022-12-11T21:18:58.992Z,3.80
2022-12-11T21:21:26.315Z,3.86
2022-12-11T21:23:53.298Z,3.94
2022-12-11T21:26:20.568Z,3.92
2022-12-11T21:28:47.554Z,3.91
2022-12-11T21:31:18.692Z,3.89
2022-12-11T21:33:46.090Z,3.89
2022-12-11T21:36:14.885Z,3.91
2022-12-11T21:38:43.950Z,3.92
2022-12-11T21:41:15.732Z,3.93
2022-12-11T21:44:14.692Z,3.96
2022-12-11T21:46:31.994Z,3.99
2022-12-11T21:49:00.009Z,4.06
2022-12-11T21:51:38.622Z,4.06
2022-12-11T21:54:13.127Z,4.06
2022-12-11T21:56:41.056Z,4.07
2022-12-11T21:59:08.144Z,4.09
2022-12-11T22:01:40.961Z,4.09
2022-12-11T22:04:10.914Z,4.12
2022-12-11T22:06:38.555Z,4.19
2022-12-11T22:09:06.091Z,4.15
2022-12-11T22:11:34.618Z,4.16
2022-12-11T22:14:03.934Z,4.19
2022-12-11T22:16:31.581Z,4.24
2022-12-11T22:18:59.105Z,4.28
2022-12-11T22:21:26.824Z,4.32
2022-12-11T22:23:54.528Z,4.33
2022-12-11T22:26:25.867Z,4.33
2022-12-11T22:28:54.429Z,4.35
2022-12-11T22:31:25.158Z,4.38
2022-12-11T22:33:54.826Z,4.39
2022-12-11T22:36:25.234Z,4.43
2022-12-11T22:38:53.611Z,4.40
2022-12-11T22:41:24.755Z,4.42
2022-12-11T22:43:54.273Z,4.43
2022-12-11T22:46:25.174Z,4.48
2022-12-11T22:48:52.868Z,4.46
2022-12-11T22:51:20.467Z,4.48
2022-12-11T22:53:47.784Z,4.49
2022-12-11T22:56:20.470Z,4.50
2022-12-11T22:58:51.883Z,4.50
2022-12-11T23:01:27.730Z,4.50
2022-12-11T23:04:04.354Z,4.53
2022-12-11T23:06:42.060Z,4.56
2022-12-11T23:09:17.812Z,4.57
2022-12-11T23:11:51.742Z,4.56
2022-12-11T23:14:22.128Z,4.58
2022-12-11T23:16:49.306Z,4.58
2022-12-11T23:19:20.869Z,4.58
2022-12-11T23:21:53.067Z,4.59
2022-12-11T23:24:20.263Z,4.60
2022-12-11T23:26:48.198Z,4.61
2022-12-11T23:29:15.344Z,4.62
2022-12-11T23:31:42.887Z,4.64
2022-12-11T23:34:10.500Z,4.64
2022-12-11T23:36:38.479Z,4.69
2022-12-11T23:39:05.711Z,4.63
2022-12-11T23:41:32.643Z,4.63
2022-12-11T23:44:00.032Z,4.65
2022-12-11T23:46:27.642Z,4.66
2022-12-11T23:48:55.903Z,4.67
2022-12-11T23:51:25.463Z,4.69
2022-12-11T23:53:52.932Z,4.70
2022-12-11T23:56:26.050Z,4.71
2022-12-11T23:58:53.396Z,4.72
